createdAt,value
2022-09-15T00:01:10.393Z,18.59
2022-09-15T00:03:38.352Z,18.54
2022-09-15T00:06:08.896Z,18.61
2022-09-15T00:08:37.199Z,18.61
2022-09-15T00:11:07.558Z,18.67
2022-09-15T00:13:37.258Z,18.61
2022-09-15T00:16:06.423Z,18.67
2022-09-15T00:18:35.766Z,18.67
2022-09-15T00:21:08.315Z,18.66
2022-09-15T00:23:37.620Z,18.54
2022-09-15T00:26:09.236Z,18.62
2022-09-15T00:28:37.542Z,18.68
2022-09-15T00:31:08.152Z,18.74
2022-09-15T00:33:36.796Z,18.80
2022-09-15T00:36:08.332Z,18.80
2022-09-15T00:38:37.143Z,18.81
2022-09-15T00:41:06.770Z,18.69
2022-09-15T00:43:47.850Z,18.72
2022-09-15T00:46:17.320Z,18.78
2022-09-15T00:48:48.588Z,18.83
2022-09-15T00:51:23.414Z,18.83
2022-09-15T00:53:53.448Z,18.82
2022-09-15T00:56:22.934Z,18.66
2022-09-15T00:58:56.292Z,18.59
2022-09-15T01:01:26.892Z,18.51
2022-09-15T01:03:55.799Z,18.55
2022-09-15T01:06:31.672Z,18.69
2022-09-15T01:09:08.591Z,18.75
2022-09-15T01:11:36.785Z,18.80
2022-09-15T01:14:05.707Z,18.87
2022-09-15T01:16:48.552Z,18.87
2022-09-15T01:19:56.128Z,18.83
2022-09-15T01:22:37.619Z,18.75
2022-09-15T01:25:10.318Z,18.78
2022-09-15T01:28:13.557Z,18.76
2022-09-15T01:30:48.680Z,18.70
2022-09-15T01:33:29.032Z,18.64
2022-09-15T01:36:03.811Z,18.65
2022-09-15T01:38:52.005Z,18.64
2022-09-15T01:41:26.986Z,18.64
2022-09-15T01:44:00.623Z,18.60
2022-09-15T01:46:34.187Z,18.57
2022-09-15T01:49:04.781Z,18.52
2022-09-15T01:51:34.252Z,18.27
2022-09-15T01:54:06.735Z,18.17
2022-09-15T01:56:34.763Z,18.34
2022-09-15T01:59:02.692Z,18.54
2022-09-15T02:01:40.741Z,18.64
2022-09-15T02:04:13.905Z,18.71
2022-09-15T02:06:53.337Z,18.70
2022-09-15T02:09:25.728Z,18.66
2022-09-15T02:12:02.264Z,18.70
2022-09-15T02:14:44.833Z,18.63
2022-09-15T02:17:17.328Z,18.66
2022-09-15T02:19:48.861Z,18.49
2022-09-15T02:22:23.413Z,18.54
2022-09-15T02:24:58.936Z,18.54
2022-09-15T02:27:31.676Z,18.55
2022-09-15T02:30:06.089Z,18.58
2022-09-15T02:32:38.231Z,18.63
2022-09-15T02:35:09.563Z,18.59
2022-09-15T02:37:39.046Z,18.59
2022-09-15T02:40:08.399Z,18.62
2022-09-15T02:42:37.202Z,18.58
2022-09-15T02:45:06.236Z,18.58
2022-09-15T02:47:35.536Z,18.59
2022-09-15T02:50:03.492Z,18.56
2022-09-15T02:52:31.387Z,18.62
2022-09-15T02:54:59.455Z,18.59
2022-09-15T02:57:27.351Z,18.68
2022-09-15T03:00:12.901Z,18.61
2022-09-15T03:02:44.885Z,18.56
2022-09-15T03:05:14.759Z,18.44
2022-09-15T03:07:42.998Z,18.43
2022-09-15T03:10:12.230Z,18.42
2022-09-15T03:12:41.169Z,18.45
2022-09-15T03:15:11.400Z,18.46
2022-09-15T03:17:41.589Z,18.37
2022-09-15T03:20:13.681Z,18.32
2022-09-15T03:22:42.000Z,18.31
2022-09-15T03:25:11.291Z,18.35
2022-09-15T03:27:39.732Z,18.39
2022-09-15T03:30:09.397Z,18.36
2022-09-15T03:32:37.657Z,18.25
2022-09-15T03:35:06.339Z,18.25
2022-09-15T03:37:35.900Z,18.24
2022-09-15T03:40:05.238Z,18.26
2022-09-15T03:42:33.433Z,18.23
2022-09-15T03:45:01.524Z,18.16
2022-09-15T03:47:29.444Z,18.15
2022-09-15T03:49:57.347Z,18.07
2022-09-15T03:52:26.322Z,17.93
2022-09-15T03:54:55.685Z,17.92
2022-09-15T03:57:23.608Z,17.99
2022-09-15T03:59:51.534Z,18.05
2022-09-15T04:02:19.507Z,18.07
2022-09-15T04:04:47.432Z,18.08
2022-09-15T04:07:15.376Z,18.11
2022-09-15T04:09:43.266Z,17.99
2022-09-15T04:12:12.548Z,17.98
2022-09-15T04:14:40.489Z,18.02
2022-09-15T04:17:10.628Z,18.01
2022-09-15T04:19:38.649Z,17.79
2022-09-15T04:22:07.158Z,17.78
2022-09-15T04:24:35.102Z,17.86
2022-09-15T04:27:02.997Z,17.91
2022-09-15T04:29:32.410Z,17.91
2022-09-15T04:32:00.429Z,17.83
2022-09-15T04:34:28.470Z,17.64
2022-09-15T04:36:56.426Z,17.59
2022-09-15T04:39:24.369Z,17.68
2022-09-15T04:41:52.446Z,17.73
2022-09-15T04:44:20.510Z,17.73
2022-09-15T04:46:49.993Z,17.74
2022-09-15T04:49:18.084Z,17.72
2022-09-15T04:51:46.068Z,17.49
2022-09-15T04:54:14.220Z,17.46
2022-09-15T04:56:42.206Z,17.60
2022-09-15T04:59:15.705Z,17.72
2022-09-15T05:01:44.903Z,17.74
2022-09-15T05:04:14.507Z,17.76
2022-09-15T05:06:42.541Z,17.78
2022-09-15T05:09:14.722Z,17.74
2022-09-15T05:11:42.775Z,17.76
2022-09-15T05:14:11.495Z,17.81
2022-09-15T05:16:40.650Z,17.82
2022-09-15T05:19:08.588Z,17.81
2022-09-15T05:21:38.583Z,17.78
2022-09-15T05:24:06.889Z,17.66
2022-09-15T05:26:34.967Z,17.60
2022-09-15T05:29:02.880Z,17.51
2022-09-15T05:31:32.453Z,17.43
2022-09-15T05:34:02.764Z,17.58
2022-09-15T05:36:31.377Z,17.75
2022-09-15T05:39:01.758Z,17.65
2022-09-15T05:41:30.441Z,17.52
2022-09-15T05:43:59.772Z,17.34
2022-09-15T05:46:29.314Z,17.29
2022-09-15T05:48:59.471Z,17.33
2022-09-15T05:51:27.876Z,17.40
2022-09-15T05:53:55.965Z,17.43
2022-09-15T05:56:25.275Z,17.35
2022-09-15T05:58:53.707Z,17.50
2022-09-15T06:01:23.951Z,17.70
2022-09-15T06:03:52.342Z,17.70
2022-09-15T06:06:21.967Z,17.77
2022-09-15T06:08:57.971Z,17.88
2022-09-15T06:11:30.384Z,17.92
2022-09-15T06:14:00.533Z,17.89
2022-09-15T06:16:29.199Z,17.80
2022-09-15T06:18:57.201Z,17.75
2022-09-15T06:21:26.806Z,17.80
2022-09-15T06:23:55.930Z,17.87
2022-09-15T06:26:24.724Z,17.91
2022-09-15T06:28:56.451Z,17.91
2022-09-15T06:31:26.010Z,17.98
2022-09-15T06:33:55.958Z,18.07
2022-09-15T06:36:27.253Z,18.15
2022-09-15T06:38:56.272Z,18.20
2022-09-15T06:41:24.440Z,18.15
2022-09-15T06:43:53.872Z,18.09
2022-09-15T06:46:23.496Z,18.05
2022-09-15T06:48:52.392Z,18.11
2022-09-15T06:51:22.633Z,18.16
2022-09-15T06:53:51.023Z,18.23
2022-09-15T06:56:21.260Z,18.20
2022-09-15T06:58:50.026Z,18.17
2022-09-15T07:01:25.255Z,18.15
2022-09-15T07:03:53.856Z,18.27
2022-09-15T07:06:22.731Z,18.42
2022-09-15T07:08:51.710Z,18.41
2022-09-15T07:11:19.729Z,18.51
2022-09-15T07:13:49.162Z,18.81
2022-09-15T07:16:19.107Z,18.97
2022-09-15T07:18:49.735Z,18.95
2022-09-15T07:21:19.964Z,18.92
2022-09-15T07:23:48.729Z,18.89
2022-09-15T07:26:18.853Z,18.99
2022-09-15T07:28:49.910Z,19.13
2022-09-15T07:31:19.894Z,19.24
2022-09-15T07:33:49.682Z,19.34
2022-09-15T07:36:18.374Z,19.38
2022-09-15T07:38:48.606Z,19.44
2022-09-15T07:41:18.752Z,19.56
2022-09-15T07:43:48.001Z,19.55
2022-09-15T07:46:16.932Z,19.49
2022-09-15T07:48:46.465Z,19.48
2022-09-15T07:51:16.620Z,19.53
2022-09-15T07:53:45.849Z,19.59
2022-09-15T07:56:14.115Z,19.70
2022-09-15T07:58:42.019Z,19.83
2022-09-15T08:01:12.111Z,19.95
2022-09-15T08:03:41.477Z,20.04
2022-09-15T08:06:10.861Z,19.97
2022-09-15T08:08:41.087Z,20.13
2022-09-15T08:11:10.971Z,20.19
2022-09-15T08:13:41.522Z,20.26
2022-09-15T08:16:11.798Z,20.17
2022-09-15T08:18:42.052Z,20.28
2022-09-15T08:21:12.985Z,20.36
2022-09-15T08:23:42.658Z,20.22
2022-09-15T08:26:14.290Z,20.18
2022-09-15T08:28:43.058Z,20.18
2022-09-15T08:31:14.139Z,20.25
2022-09-15T08:33:45.734Z,20.27
2022-09-15T08:36:14.292Z,20.20
2022-09-15T08:38:45.247Z,20.20
2022-09-15T08:41:16.387Z,20.16
2022-09-15T08:43:49.044Z,20.15
2022-09-15T08:46:21.270Z,20.15
2022-09-15T08:48:59.605Z,20.14
2022-09-15T08:51:37.444Z,20.13
2022-09-15T08:54:15.851Z,20.17
2022-09-15T08:56:44.769Z,20.17
2022-09-15T08:59:16.706Z,20.19
2022-09-15T09:01:58.870Z,20.24
2022-09-15T09:04:48.378Z,20.29
2022-09-15T09:07:32.235Z,20.27
2022-09-15T09:10:11.178Z,20.27
2022-09-15T09:12:53.606Z,20.32
2022-09-15T09:15:32.654Z,20.31
2022-09-15T09:18:24.773Z,20.33
2022-09-15T09:21:04.202Z,20.35
2022-09-15T09:23:36.855Z,20.42
2022-09-15T09:26:10.373Z,20.47
2022-09-15T09:28:43.172Z,20.55
2022-09-15T09:31:18.871Z,20.54
2022-09-15T09:33:52.645Z,20.58
2022-09-15T09:36:21.119Z,20.60
2022-09-15T09:38:51.283Z,20.75
2022-09-15T09:41:26.814Z,20.74
2022-09-15T09:43:57.008Z,20.75
2022-09-15T09:46:24.979Z,20.79
2022-09-15T09:48:57.460Z,20.74
2022-09-15T09:51:35.612Z,20.75
2022-09-15T09:54:15.395Z,20.75
2022-09-15T09:56:45.855Z,20.72
2022-09-15T09:59:36.030Z,20.51
2022-09-15T10:02:20.738Z,20.46
2022-09-15T10:04:50.541Z,20.58
2022-09-15T10:07:21.463Z,20.76
2022-09-15T10:09:52.906Z,20.85
2022-09-15T10:12:30.837Z,20.94
2022-09-15T10:15:01.715Z,21.05
2022-09-15T10:17:41.579Z,21.20
2022-09-15T10:20:25.628Z,21.26
2022-09-15T10:23:03.334Z,21.30
2022-09-15T10:25:55.143Z,21.35
2022-09-15T10:28:25.921Z,21.33
2022-09-15T10:31:02.276Z,21.28
2022-09-15T10:33:32.404Z,21.26
2022-09-15T10:36:07.175Z,21.27
2022-09-15T10:38:45.291Z,20.97
2022-09-15T10:41:23.173Z,20.92
2022-09-15T10:44:20.361Z,20.81
2022-09-15T10:46:56.378Z,20.72
2022-09-15T10:49:38.354Z,20.70
2022-09-15T10:52:15.856Z,20.80
2022-09-15T10:55:03.172Z,20.86
2022-09-15T10:57:50.190Z,20.90
2022-09-15T11:00:22.665Z,21.03
2022-09-15T11:03:17.720Z,21.23
2022-09-15T11:05:55.984Z,21.32
2022-09-15T11:08:41.822Z,21.47
2022-09-15T11:11:18.845Z,21.49
2022-09-15T11:14:04.759Z,21.42
2022-09-15T11:16:46.244Z,21.46
2022-09-15T11:19:32.920Z,21.63
2022-09-15T11:22:05.038Z,21.79
2022-09-15T11:24:42.718Z,21.76
2022-09-15T11:27:19.340Z,21.87
2022-09-15T11:30:02.798Z,21.98
2022-09-15T11:32:38.016Z,22.02
2022-09-15T11:35:33.922Z,22.02
2022-09-15T11:38:13.122Z,22.09
2022-09-15T11:40:47.724Z,22.16
2022-09-15T11:43:22.708Z,22.39
2022-09-15T11:45:54.462Z,22.58
2022-09-15T11:48:31.113Z,22.42
2022-09-15T11:51:03.233Z,22.31
2022-09-15T11:53:38.608Z,22.23
2022-09-15T11:56:22.545Z,22.26
2022-09-15T11:59:01.321Z,22.30
2022-09-15T12:01:33.970Z,22.38
2022-09-15T12:04:09.356Z,22.17
2022-09-15T12:06:45.738Z,22.10
2022-09-15T12:09:16.962Z,22.31
2022-09-15T12:11:47.514Z,22.37
2022-09-15T12:14:18.372Z,22.36
2022-09-15T12:16:46.828Z,22.35
2022-09-15T12:19:25.473Z,22.32
2022-09-15T12:22:00.815Z,22.20
2022-09-15T12:24:38.114Z,22.16
2022-09-15T12:27:06.308Z,22.23
2022-09-15T12:29:42.199Z,22.17
2022-09-15T12:32:23.027Z,22.11
2022-09-15T12:35:01.176Z,22.24
2022-09-15T12:37:36.771Z,22.52
2022-09-15T12:40:07.903Z,22.62
2022-09-15T12:42:37.376Z,22.59
2022-09-15T12:45:08.250Z,22.54
2022-09-15T12:47:40.180Z,22.47
2022-09-15T12:50:25.486Z,22.33
2022-09-15T12:52:57.588Z,22.29
2022-09-15T12:55:28.659Z,22.25
2022-09-15T12:58:00.176Z,22.11
2022-09-15T13:00:31.501Z,22.18
2022-09-15T13:03:00.550Z,22.34
2022-09-15T13:06:18.290Z,22.44
2022-09-15T13:09:16.571Z,22.49
2022-09-15T13:11:48.207Z,22.59
2022-09-15T13:14:29.138Z,22.56
2022-09-15T13:17:03.065Z,22.76
2022-09-15T13:19:41.643Z,23.24
2022-09-15T13:22:20.590Z,23.62
2022-09-15T13:24:57.699Z,23.80
2022-09-15T13:27:34.300Z,23.50
2022-09-15T13:30:11.392Z,23.05
2022-09-15T13:32:46.640Z,23.35
2022-09-15T13:35:49.567Z,23.67
2022-09-15T13:38:43.981Z,23.75
2022-09-15T13:41:34.035Z,23.91
2022-09-15T13:44:35.815Z,24.20
2022-09-15T13:47:20.787Z,24.21
2022-09-15T13:49:54.056Z,24.28
2022-09-15T13:52:43.114Z,24.40
2022-09-15T13:55:21.727Z,24.36
2022-09-15T14:00:54.331Z,23.73
2022-09-15T14:03:25.936Z,23.73
2022-09-15T14:05:54.632Z,24.00
2022-09-15T14:08:25.237Z,24.21
2022-09-15T14:10:57.480Z,24.43
2022-09-15T14:13:28.618Z,24.76
2022-09-15T14:16:01.652Z,24.76
2022-09-15T14:18:30.927Z,24.84
2022-09-15T14:21:00.895Z,24.26
2022-09-15T14:23:29.465Z,23.68
2022-09-15T14:26:01.564Z,23.31
2022-09-15T14:28:33.262Z,23.03
2022-09-15T14:31:02.172Z,22.92
2022-09-15T14:33:38.207Z,22.83
2022-09-15T14:36:23.438Z,22.75
2022-09-15T14:39:19.113Z,22.60
2022-09-15T14:41:50.091Z,22.46
2022-09-15T14:47:28.929Z,22.25
2022-09-15T14:50:07.930Z,22.16
2022-09-15T14:52:40.567Z,22.13
2022-09-15T14:55:15.560Z,22.10
2022-09-15T14:57:51.866Z,22.04
2022-09-15T15:00:23.664Z,21.96
2022-09-15T15:03:02.684Z,21.90
2022-09-15T15:05:34.920Z,21.89
2022-09-15T15:08:07.555Z,21.84
2022-09-15T15:10:36.313Z,21.78
2022-09-15T15:13:11.274Z,21.75
2022-09-15T15:15:40.478Z,21.67
2022-09-15T15:18:31.876Z,21.63
2022-09-15T15:21:00.316Z,21.59
2022-09-15T15:23:28.998Z,21.50
2022-09-15T15:26:27.333Z,20.85
2022-09-15T15:28:56.677Z,19.34
2022-09-15T15:31:27.483Z,18.64
2022-09-15T15:33:59.441Z,18.25
2022-09-15T15:36:29.025Z,18.11
2022-09-15T15:38:59.318Z,17.97
2022-09-15T15:41:29.483Z,18.22
2022-09-15T15:44:08.183Z,18.56
2022-09-15T15:46:51.284Z,18.80
2022-09-15T15:49:21.041Z,18.92
2022-09-15T15:51:49.168Z,19.02
2022-09-15T15:54:17.091Z,19.23
2022-09-15T15:56:45.013Z,19.29
2022-09-15T15:59:16.088Z,19.34
2022-09-15T16:01:44.456Z,19.34
2022-09-15T16:04:13.256Z,19.40
2022-09-15T16:06:42.236Z,19.38
2022-09-15T16:09:11.128Z,19.36
2022-09-15T16:11:39.019Z,19.38
2022-09-15T16:14:07.030Z,19.44
2022-09-15T16:16:37.643Z,19.46
2022-09-15T16:19:05.592Z,19.43
2022-09-15T16:21:37.465Z,19.48
2022-09-15T16:24:05.945Z,19.43
2022-09-15T16:26:35.689Z,19.38
2022-09-15T16:29:03.879Z,19.33
2022-09-15T16:31:32.291Z,19.37
2022-09-15T16:34:01.649Z,19.46
2022-09-15T16:36:30.995Z,19.50
2022-09-15T16:38:58.902Z,19.44
2022-09-15T16:41:27.071Z,19.45
2022-09-15T16:43:55.853Z,19.45
2022-09-15T16:46:23.935Z,19.47
2022-09-15T16:48:52.209Z,19.46
2022-09-15T16:51:28.703Z,19.44
2022-09-15T16:53:59.363Z,19.41
2022-09-15T16:56:28.140Z,19.43
2022-09-15T16:59:00.055Z,19.36
2022-09-15T17:01:28.989Z,19.25
2022-09-15T17:03:57.280Z,19.21
2022-09-15T17:06:26.624Z,19.15
2022-09-15T17:08:55.620Z,19.15
2022-09-15T17:11:25.512Z,19.12
2022-09-15T17:13:53.573Z,19.14
2022-09-15T17:16:21.989Z,19.08
2022-09-15T17:18:50.109Z,19.07
2022-09-15T17:21:19.764Z,19.06
2022-09-15T17:23:50.732Z,19.08
2022-09-15T17:26:20.753Z,19.13
2022-09-15T17:28:48.873Z,19.13
2022-09-15T17:31:18.630Z,19.14
2022-09-15T17:33:47.478Z,19.14
2022-09-15T17:36:16.137Z,19.08
2022-09-15T17:38:44.932Z,19.05
2022-09-15T17:41:16.614Z,19.04
2022-09-15T17:43:44.837Z,19.07
2022-09-15T17:46:12.921Z,19.08
2022-09-15T17:48:40.951Z,19.06
2022-09-15T17:51:14.299Z,18.83
2022-09-15T17:53:42.370Z,18.83
2022-09-15T17:56:10.288Z,18.92
2022-09-15T17:58:39.963Z,18.98
2022-09-15T18:01:07.985Z,18.99
2022-09-15T18:03:37.994Z,18.91
2022-09-15T18:06:08.443Z,18.69
2022-09-15T18:08:37.042Z,18.58
2022-09-15T18:11:06.683Z,18.61
2022-09-15T18:13:35.196Z,18.68
2022-09-15T18:16:07.170Z,18.77
2022-09-15T18:18:35.239Z,18.83
2022-09-15T18:21:09.766Z,18.86
2022-09-15T18:23:39.152Z,18.81
2022-09-15T18:26:07.245Z,18.83
2022-09-15T18:28:35.147Z,18.79
2022-09-15T18:31:03.165Z,18.75
2022-09-15T18:33:32.547Z,18.74
2022-09-15T18:36:01.407Z,18.73
2022-09-15T18:38:29.444Z,18.66
2022-09-15T18:40:58.259Z,18.55
2022-09-15T18:43:28.247Z,18.47
2022-09-15T18:45:59.758Z,18.50
2022-09-15T18:48:28.718Z,18.55
2022-09-15T18:50:59.185Z,18.57
2022-09-15T18:53:27.258Z,18.54
2022-09-15T18:55:55.231Z,18.50
2022-09-15T18:58:23.778Z,18.53
2022-09-15T19:00:51.970Z,18.52
2022-09-15T19:03:19.914Z,18.52
2022-09-15T19:05:47.791Z,18.57
2022-09-15T19:08:17.288Z,18.61
2022-09-15T19:10:45.206Z,18.64
2022-09-15T19:13:14.293Z,18.66
2022-09-15T19:15:44.038Z,18.63
2022-09-15T19:18:12.206Z,18.59
2022-09-15T19:20:40.260Z,18.63
2022-09-15T19:23:08.240Z,18.56
2022-09-15T19:25:38.145Z,18.59
2022-09-15T19:28:06.072Z,18.62
2022-09-15T19:30:34.260Z,18.64
2022-09-15T19:33:02.866Z,18.66
2022-09-15T19:35:30.967Z,18.67
2022-09-15T19:37:59.021Z,18.64
2022-09-15T19:40:27.091Z,18.63
2022-09-15T19:42:56.540Z,18.66
2022-09-15T19:45:24.592Z,18.63
2022-09-15T19:47:52.510Z,18.57
2022-09-15T19:50:20.479Z,18.58
2022-09-15T19:52:48.460Z,18.64
2022-09-15T19:55:18.125Z,18.66
2022-09-15T19:57:46.513Z,18.71
2022-09-15T20:00:16.316Z,18.70
2022-09-15T20:02:48.620Z,18.65
2022-09-15T20:05:34.575Z,18.58
2022-09-15T20:08:03.710Z,18.58
2022-09-15T20:10:31.624Z,18.56
2022-09-15T20:12:59.461Z,18.57
2022-09-15T20:15:29.730Z,18.61
2022-09-15T20:17:57.642Z,18.59
2022-09-15T20:20:25.523Z,18.60
2022-09-15T20:22:53.445Z,18.58
2022-09-15T20:25:24.021Z,18.63
2022-09-15T20:27:52.542Z,18.61
2022-09-15T20:30:20.591Z,18.56
2022-09-15T20:32:49.926Z,18.55
2022-09-15T20:35:17.893Z,18.46
2022-09-15T20:37:45.810Z,18.43
2022-09-15T20:40:14.032Z,18.41
2022-09-15T20:42:42.610Z,18.41
2022-09-15T20:45:11.505Z,18.49
2022-09-15T20:47:39.473Z,18.47
2022-09-15T20:50:10.082Z,18.44
2022-09-15T20:52:38.636Z,18.45
2022-09-15T20:55:07.210Z,18.47
2022-09-15T20:57:35.136Z,18.50
2022-09-15T21:00:04.860Z,18.50
2022-09-15T21:02:32.874Z,18.46
2022-09-15T21:05:00.949Z,18.48
2022-09-15T21:07:30.293Z,18.48
2022-09-15T21:09:58.223Z,18.44
2022-09-15T21:12:26.195Z,18.47
2022-09-15T21:14:55.418Z,18.46
2022-09-15T21:17:23.567Z,18.49
2022-09-15T21:19:51.495Z,18.49
2022-09-15T21:22:19.456Z,18.50
2022-09-15T21:24:48.792Z,18.46
2022-09-15T21:27:28.991Z,18.43
2022-09-15T21:29:57.016Z,18.41
2022-09-15T21:32:25.443Z,18.45
2022-09-15T21:34:56.011Z,18.46
2022-09-15T21:37:24.106Z,18.45
2022-09-15T21:39:53.429Z,18.41
2022-09-15T21:42:22.506Z,18.33
2022-09-15T21:44:51.019Z,18.38
2022-09-15T21:47:19.433Z,18.43
2022-09-15T21:49:47.349Z,18.48
2022-09-15T21:52:15.408Z,18.45
2022-09-15T21:54:43.443Z,18.45
2022-09-15T21:57:14.328Z,18.47
2022-09-15T21:59:42.290Z,18.48
2022-09-15T22:02:11.605Z,18.48
2022-09-15T22:04:40.073Z,18.45
2022-09-15T22:07:07.982Z,18.43
2022-09-15T22:09:54.228Z,18.47
2022-09-15T22:12:23.444Z,18.50
2022-09-15T22:14:51.350Z,18.46
2022-09-15T22:17:19.175Z,18.41
2022-09-15T22:19:47.041Z,18.40
2022-09-15T22:22:14.951Z,18.46
2022-09-15T22:24:42.821Z,18.45
2022-09-15T22:27:10.839Z,18.45
2022-09-15T22:29:40.018Z,18.43
2022-09-15T22:32:07.872Z,18.38
2022-09-15T22:34:35.734Z,18.37
2022-09-15T22:37:03.604Z,18.36
2022-09-15T22:39:50.539Z,18.38
2022-09-15T22:42:19.222Z,18.36
2022-09-15T22:44:48.446Z,18.34
2022-09-15T22:47:16.797Z,18.32
2022-09-15T22:49:44.604Z,18.31
2022-09-15T22:52:13.335Z,18.29
2022-09-15T22:54:41.266Z,18.37
2022-09-15T22:57:09.184Z,18.31
2022-09-15T22:59:37.014Z,18.31
2022-09-15T23:02:06.373Z,18.34
2022-09-15T23:04:34.287Z,18.29
2022-09-15T23:07:02.157Z,18.27
2022-09-15T23:09:30.109Z,18.26
2022-09-15T23:11:57.982Z,18.24
2022-09-15T23:14:25.930Z,18.25
2022-09-15T23:16:53.993Z,18.16
2022-09-15T23:19:23.198Z,18.07
2022-09-15T23:21:51.511Z,18.09
2022-09-15T23:24:19.397Z,18.15
2022-09-15T23:26:47.316Z,18.18
2022-09-15T23:29:15.176Z,18.10
2022-09-15T23:31:43.165Z,18.13
2022-09-15T23:34:11.084Z,18.22
2022-09-15T23:36:40.360Z,18.32
2022-09-15T23:39:08.269Z,18.25
2022-09-15T23:41:36.787Z,18.22
2022-09-15T23:44:05.021Z,18.17
2022-09-15T23:46:33.433Z,18.15
2022-09-15T23:49:01.518Z,18.16
2022-09-15T23:51:29.378Z,18.19
2022-09-15T23:53:58.707Z,18.12
2022-09-15T23:56:26.541Z,17.97
2022-09-15T23:58:54.497Z,17.97
